Time;durP1;ratioP1;P1;durP2;ratioP2;P2;SDS_P1;SDS_P2;PMS_P1;PMS_P2;Temp;Humidity;BMP_temperature;BMP_pressure;BME280_temperature;BME280_humidity;BME280_pressure;Samples;Min_cycle;Max_cycle;Signal;HPM_P1;HPM_P2
2022/04/10 00:00:53;;;;;;;14.37;9.50;;;2.10;99.90;;;;;;5074923;28;20154;-64
2022/04/10 00:03:19;;;;;;;14.23;9.87;;;2.10;99.90;;;;;;5076707;28;20158;-64
2022/04/10 00:05:45;;;;;;;12.37;9.40;;;2.10;99.90;;;;;;5076672;28;20239;-63
2022/04/10 00:08:11;;;;;;;11.23;10.07;;;2.10;99.90;;;;;;5076598;28;20493;-63
2022/04/10 00:10:37;;;;;;;14.07;9.97;;;2.10;99.90;;;;;;5074836;28;20197;-64
2022/04/10 00:13:03;;;;;;;15.20;9.47;;;2.10;99.90;;;;;;5076181;28;20177;-64
2022/04/10 00:15:29;;;;;;;12.53;10.03;;;2.10;99.90;;;;;;5074965;28;20268;-63
2022/04/10 00:17:55;;;;;;;13.73;10.13;;;2.10;99.90;;;;;;5076300;28;20165;-64
2022/04/10 00:20:21;;;;;;;14.93;9.87;;;2.10;99.90;;;;;;5074958;28;20624;-63
2022/04/10 00:22:48;;;;;;;10.60;9.40;;;2.10;99.90;;;;;;5074820;28;20178;-63
2022/04/10 00:25:16;;;;;;;14.40;10.03;;;2.10;99.90;;;;;;5057147;28;20254;-64
2022/04/10 00:27:42;;;;;;;13.27;9.43;;;2.10;99.90;;;;;;5074859;28;20162;-64
2022/04/10 00:30:11;;;;;;;13.70;9.90;;;2.10;99.90;;;;;;5074840;28;20209;-63
2022/04/10 00:32:37;;;;;;;12.37;9.80;;;2.00;99.90;;;;;;5074910;28;20634;-64
2022/04/10 00:35:05;;;;;;;13.20;9.40;;;2.00;99.90;;;;;;5076588;28;20200;-63
2022/04/10 00:37:31;;;;;;;13.93;9.40;;;2.00;99.90;;;;;;5076508;28;20154;-63
2022/04/10 00:39:57;;;;;;;13.67;9.50;;;2.00;99.90;;;;;;5076048;28;20193;-63
2022/04/10 00:42:30;;;;;;;9.83;8.73;;;2.00;99.90;;;;;;5076054;28;20237;-64
2022/04/10 00:44:55;;;;;;;15.57;10.37;;;2.00;99.90;;;;;;5076006;28;20158;-64
2022/04/10 00:47:21;;;;;;;18.17;9.97;;;1.90;99.90;;;;;;5076217;28;20509;-63
2022/04/10 00:49:46;;;;;;;12.33;9.87;;;1.90;99.90;;;;;;5075553;28;20327;-64
2022/04/10 00:52:13;;;;;;;16.40;9.47;;;2.00;99.90;;;;;;5075857;28;20173;-63
2022/04/10 00:54:39;;;;;;;18.53;10.50;;;1.90;99.90;;;;;;5057118;28;20299;-63
2022/04/10 00:57:06;;;;;;;13.70;10.07;;;1.90;99.90;;;;;;5072239;28;20258;-63
2022/04/10 00:59:32;;;;;;;14.93;9.33;;;1.90;99.90;;;;;;5075453;28;20232;-63
2022/04/10 01:01:57;;;;;;;12.50;9.83;;;1.90;99.90;;;;;;5075742;28;20560;-63
2022/04/10 01:04:23;;;;;;;17.63;10.53;;;1.90;99.90;;;;;;5076147;28;20162;-63
2022/04/10 01:06:54;;;;;;;18.77;11.23;;;1.80;99.90;;;;;;5075653;28;20173;-63
2022/04/10 01:09:20;;;;;;;16.67;10.50;;;1.80;99.90;;;;;;5075037;28;20194;-64
2022/04/10 01:11:46;;;;;;;14.20;10.30;;;1.80;99.90;;;;;;5072921;28;20228;-64
2022/04/10 01:14:13;;;;;;;10.87;9.67;;;1.80;99.90;;;;;;5073689;28;20194;-63
2022/04/10 01:16:39;;;;;;;10.97;9.63;;;1.80;99.90;;;;;;5075006;28;20508;-64
2022/04/10 01:19:05;;;;;;;17.23;11.00;;;1.80;99.90;;;;;;5075221;28;20194;-63
2022/04/10 01:21:33;;;;;;;15.40;10.77;;;1.80;99.90;;;;;;5075126;28;20188;-63
2022/04/10 01:23:59;;;;;;;15.37;10.20;;;1.80;99.90;;;;;;5063391;28;20659;-63
2022/04/10 01:26:27;;;;;;;20.87;11.80;;;1.80;99.90;;;;;;5065983;28;20236;-65
2022/04/10 01:29:03;;;;;;;16.60;9.67;;;1.80;99.90;;;;;;5075021;28;20226;-63
2022/04/10 01:31:30;;;;;;;12.40;10.07;;;1.80;99.90;;;;;;5074601;28;20579;-64
2022/04/10 01:33:58;;;;;;;16.00;10.17;;;1.80;99.90;;;;;;5073205;28;20194;-63
2022/04/10 01:36:29;;;;;;;18.20;10.23;;;1.80;99.90;;;;;;5073203;28;20198;-63
2022/04/10 01:38:56;;;;;;;13.30;10.53;;;1.70;99.90;;;;;;5074117;28;20186;-63
2022/04/10 01:41:24;;;;;;;12.23;9.67;;;1.70;99.90;;;;;;5073152;28;20619;-64
2022/04/10 01:43:51;;;;;;;18.47;10.93;;;1.70;99.90;;;;;;5074605;28;20551;-64
2022/04/10 01:46:17;;;;;;;16.53;10.10;;;1.70;99.90;;;;;;5074321;28;20631;-63
2022/04/10 01:48:44;;;;;;;15.47;10.27;;;1.70;99.90;;;;;;5074415;28;20194;-63
2022/04/10 01:51:09;;;;;;;13.10;10.73;;;1.70;99.90;;;;;;5074737;28;20158;-63
2022/04/10 01:53:36;;;;;;;16.43;11.27;;;1.70;99.90;;;;;;5064877;28;20183;-63
2022/04/10 01:56:03;;;;;;;12.23;9.77;;;1.70;99.90;;;;;;5061738;28;20189;-63
2022/04/10 01:58:35;;;;;;;12.07;9.13;;;1.70;99.90;;;;;;5073996;28;20192;-64
2022/04/10 02:01:05;;;;;;;18.00;9.60;;;1.70;99.90;;;;;;5074191;28;20669;-63
2022/04/10 02:03:31;;;;;;;15.30;10.40;;;1.70;99.90;;;;;;5074249;28;20555;-63
2022/04/10 02:05:57;;;;;;;15.60;10.53;;;1.70;99.90;;;;;;5073978;28;20208;-63
2022/04/10 02:08:23;;;;;;;18.20;10.33;;;1.70;99.90;;;;;;5074035;28;20200;-63
2022/04/10 02:10:49;;;;;;;15.10;10.00;;;1.70;99.90;;;;;;5073533;28;20697;-63
2022/04/10 02:13:15;;;;;;;12.97;9.90;;;1.70;99.90;;;;;;5072496;28;20189;-63
2022/04/10 02:15:41;;;;;;;15.77;9.50;;;1.70;99.90;;;;;;5074026;28;20189;-63
2022/04/10 02:18:07;;;;;;;15.47;10.17;;;1.70;99.90;;;;;;5074245;28;20166;-63
2022/04/10 02:20:33;;;;;;;14.23;10.53;;;1.70;99.90;;;;;;5074137;28;20164;-63
2022/04/10 02:22:59;;;;;;;14.50;9.17;;;1.70;99.90;;;;;;5070864;28;20408;-64
2022/04/10 02:25:25;;;;;;;19.70;9.77;;;1.70;99.90;;;;;;5056326;28;20193;-63
2022/04/10 02:27:51;;;;;;;16.97;9.93;;;1.70;99.90;;;;;;5072414;28;20166;-63
2022/04/10 02:30:18;;;;;;;15.80;9.83;;;1.70;99.90;;;;;;5073557;28;20220;-63
2022/04/10 02:32:44;;;;;;;17.13;10.00;;;1.70;99.90;;;;;;5072346;28;20166;-63
2022/04/10 02:35:11;;;;;;;16.90;10.40;;;1.70;99.90;;;;;;5073917;28;20655;-63
2022/04/10 02:37:37;;;;;;;16.20;10.83;;;1.70;99.90;;;;;;5072263;28;20253;-63
2022/04/10 02:40:04;;;;;;;20.43;10.83;;;1.70;99.90;;;;;;5071982;28;20190;-63
2022/04/10 02:42:33;;;;;;;17.13;8.93;;;1.70;99.90;;;;;;5073871;28;20162;-63
2022/04/10 02:45:02;;;;;;;17.03;10.37;;;1.70;99.90;;;;;;5073450;28;20511;-63
2022/04/10 02:47:30;;;;;;;18.07;11.20;;;1.70;99.90;;;;;;5073372;28;20178;-63
2022/04/10 02:49:56;;;;;;;17.53;10.43;;;1.70;99.90;;;;;;5072157;28;20201;-63
2022/04/10 02:52:22;;;;;;;18.43;10.67;;;1.70;99.90;;;;;;5073949;28;20162;-63
2022/04/10 02:54:48;;;;;;;15.07;9.60;;;1.70;99.90;;;;;;5055099;28;20256;-63
2022/04/10 02:57:14;;;;;;;19.87;10.20;;;1.70;99.90;;;;;;5071353;28;20174;-63
2022/04/10 02:59:39;;;;;;;15.13;10.30;;;1.70;99.90;;;;;;5071934;28;20557;-63
2022/04/10 03:02:05;;;;;;;15.60;10.10;;;1.70;99.90;;;;;;5073853;28;20192;-63
2022/04/10 03:04:31;;;;;;;12.47;9.80;;;1.70;99.90;;;;;;5071906;28;20177;-63
2022/04/10 03:06:57;;;;;;;18.43;10.63;;;1.70;99.90;;;;;;5073261;28;20162;-63
2022/04/10 03:09:22;;;;;;;14.57;10.83;;;1.70;99.90;;;;;;5072962;28;20200;-64
2022/04/10 03:11:48;;;;;;;14.57;9.90;;;1.70;99.90;;;;;;5073026;28;20254;-63
2022/04/10 03:14:14;;;;;;;11.77;10.33;;;1.60;99.90;;;;;;5071750;28;20202;-64
2022/04/10 03:16:40;;;;;;;14.83;11.57;;;1.60;99.90;;;;;;5072046;28;20526;-63
2022/04/10 03:19:05;;;;;;;15.83;10.97;;;1.70;99.90;;;;;;5071758;28;20194;-63
2022/04/10 03:21:32;;;;;;;15.13;10.73;;;1.70;99.90;;;;;;5073616;28;20163;-64
2022/04/10 03:23:57;;;;;;;17.20;10.03;;;1.70;99.90;;;;;;5062059;28;20186;-63
2022/04/10 03:26:23;;;;;;;14.67;10.83;;;1.70;99.90;;;;;;5063542;28;20246;-63
2022/04/10 03:28:49;;;;;;;13.93;10.50;;;1.60;99.90;;;;;;5073628;28;20274;-64
2022/04/10 03:31:14;;;;;;;15.63;10.50;;;1.60;99.90;;;;;;5073281;28;20623;-63
2022/04/10 03:33:40;;;;;;;15.97;9.70;;;1.60;99.90;;;;;;5073371;28;20520;-63
2022/04/10 03:36:05;;;;;;;13.60;10.17;;;1.60;99.90;;;;;;5074292;28;20193;-63
2022/04/10 03:38:31;;;;;;;19.70;10.97;;;1.60;99.90;;;;;;5076862;28;20190;-63
2022/04/10 03:40:57;;;;;;;14.00;10.87;;;1.60;99.90;;;;;;5076593;28;20244;-63
2022/04/10 03:43:23;;;;;;;15.70;10.63;;;1.60;99.90;;;;;;5076875;28;20162;-63
2022/04/10 03:45:49;;;;;;;19.60;10.43;;;1.60;99.90;;;;;;5077076;28;20174;-63
2022/04/10 03:48:14;;;;;;;14.77;10.43;;;1.60;99.90;;;;;;5076501;28;20664;-63
2022/04/10 03:50:40;;;;;;;20.00;11.03;;;1.60;99.90;;;;;;5076465;28;20174;-64
2022/04/10 03:53:06;;;;;;;16.00;10.73;;;1.60;99.90;;;;;;5072943;28;20195;-64
2022/04/10 03:55:32;;;;;;;21.23;10.70;;;1.60;99.90;;;;;;5059727;28;20205;-63
2022/04/10 03:57:58;;;;;;;20.43;10.83;;;1.60;99.90;;;;;;5076273;28;20169;-64
2022/04/10 04:00:24;;;;;;;17.57;11.00;;;1.60;99.90;;;;;;5076570;28;20178;-63
2022/04/10 04:02:50;;;;;;;19.07;10.87;;;1.60;99.90;;;;;;5076500;28;20180;-63
2022/04/10 04:05:16;;;;;;;15.47;10.87;;;1.60;99.90;;;;;;5076564;28;20260;-63
2022/04/10 04:07:42;;;;;;;26.50;11.03;;;1.60;99.90;;;;;;5076264;28;20225;-63
2022/04/10 04:10:09;;;;;;;17.40;10.77;;;1.60;99.90;;;;;;5075751;28;20209;-63
2022/04/10 04:12:34;;;;;;;15.83;10.13;;;1.60;99.90;;;;;;5076716;28;20158;-63
2022/04/10 04:15:00;;;;;;;13.23;10.17;;;1.50;99.90;;;;;;5075954;28;20250;-63
2022/04/10 04:17:26;;;;;;;21.47;11.27;;;1.60;99.90;;;;;;5075997;28;20170;-63
2022/04/10 04:19:53;;;;;;;16.67;11.00;;;1.50;99.90;;;;;;5076014;28;20193;-63
2022/04/10 04:22:19;;;;;;;15.00;10.80;;;1.50;99.90;;;;;;5075991;28;20195;-63
2022/04/10 04:24:45;;;;;;;13.30;11.00;;;1.50;99.90;;;;;;5057896;28;20265;-63
2022/04/10 04:27:11;;;;;;;16.00;10.40;;;1.50;99.90;;;;;;5073305;28;20184;-63
2022/04/10 04:29:37;;;;;;;13.97;9.90;;;1.50;99.90;;;;;;5075746;28;20207;-63
2022/04/10 04:32:03;;;;;;;17.83;10.60;;;1.50;99.90;;;;;;5075735;28;20578;-63
2022/04/10 04:34:29;;;;;;;14.73;10.43;;;1.50;99.90;;;;;;5075577;28;20212;-63
2022/04/10 04:36:54;;;;;;;14.10;10.60;;;1.50;99.90;;;;;;5074412;28;20264;-63
2022/04/10 04:39:20;;;;;;;13.67;10.30;;;1.50;99.90;;;;;;5075391;28;20683;-64
2022/04/10 04:41:46;;;;;;;17.03;10.03;;;1.50;99.90;;;;;;5075681;28;20173;-63
2022/04/10 04:44:12;;;;;;;15.80;11.13;;;1.40;99.90;;;;;;5075896;28;20184;-63
2022/04/10 04:46:38;;;;;;;16.17;11.40;;;1.50;99.90;;;;;;5074585;28;20188;-63
2022/04/10 04:49:04;;;;;;;14.73;10.27;;;1.40;99.90;;;;;;5074238;28;20737;-63
2022/04/10 04:51:34;;;;;;;17.50;9.90;;;1.50;99.90;;;;;;5075557;28;20545;-63
2022/04/10 04:54:01;;;;;;;15.43;10.80;;;1.50;99.90;;;;;;5063821;28;20252;-63
2022/04/10 04:56:27;;;;;;;19.00;11.03;;;1.50;99.90;;;;;;5066471;28;20181;-63
2022/04/10 04:58:52;;;;;;;19.47;10.37;;;1.50;99.90;;;;;;5075245;28;20182;-63
2022/04/10 05:01:18;;;;;;;16.53;10.13;;;1.50;99.90;;;;;;5075718;28;20673;-63
2022/04/10 05:03:44;;;;;;;11.33;10.13;;;1.50;99.90;;;;;;5074361;28;20190;-63
2022/04/10 05:06:10;;;;;;;15.63;10.83;;;1.50;99.90;;;;;;5076026;28;20522;-64
2022/04/10 05:08:36;;;;;;;19.83;10.47;;;1.50;99.90;;;;;;5075277;28;20201;-64
2022/04/10 05:11:01;;;;;;;14.53;9.83;;;1.50;99.90;;;;;;5073517;28;20277;-63
2022/04/10 05:13:27;;;;;;;15.57;10.10;;;1.50;99.90;;;;;;5075035;28;20174;-63
2022/04/10 05:15:53;;;;;;;17.80;11.00;;;1.50;99.90;;;;;;5074912;28;20551;-63
2022/04/10 05:18:20;;;;;;;16.73;10.53;;;1.60;99.90;;;;;;5074746;28;20190;-63
2022/04/10 05:20:48;;;;;;;17.90;10.50;;;1.60;99.90;;;;;;5074877;28;20181;-63
2022/04/10 05:23:18;;;;;;;14.57;9.90;;;1.60;99.90;;;;;;5069747;28;20216;-63
2022/04/10 05:25:44;;;;;;;19.67;10.90;;;1.60;99.90;;;;;;5059772;28;20185;-63
2022/04/10 05:28:10;;;;;;;14.87;9.90;;;1.70;99.90;;;;;;5074569;28;20178;-63
2022/04/10 05:30:36;;;;;;;16.40;10.63;;;1.70;99.90;;;;;;5074609;28;20717;-63
2022/04/10 05:33:01;;;;;;;21.33;10.90;;;1.80;99.90;;;;;;5074603;28;20173;-63
2022/04/10 05:35:27;;;;;;;21.00;10.30;;;1.80;99.90;;;;;;5074480;28;20562;-63
2022/04/10 05:37:53;;;;;;;17.87;10.60;;;1.90;99.90;;;;;;5074478;28;20180;-63
2022/04/10 05:40:19;;;;;;;15.97;10.10;;;1.90;99.90;;;;;;5074577;28;20186;-63
2022/04/10 05:42:45;;;;;;;17.57;10.33;;;2.00;99.90;;;;;;5074639;28;20249;-63
2022/04/10 05:45:11;;;;;;;19.10;10.20;;;2.10;99.90;;;;;;5074364;28;20538;-64
2022/04/10 05:47:39;;;;;;;12.20;10.20;;;2.10;99.90;;;;;;5074514;28;20561;-63
2022/04/10 05:50:06;;;;;;;21.23;10.30;;;2.10;99.90;;;;;;5074122;28;20193;-63
2022/04/10 05:52:37;;;;;;;12.30;10.10;;;2.20;99.90;;;;;;5074508;28;20688;-63
2022/04/10 05:55:03;;;;;;;14.63;10.27;;;2.30;99.90;;;;;;5054541;28;20539;-64
2022/04/10 05:57:29;;;;;;;15.27;10.10;;;2.30;99.90;;;;;;5073569;28;20186;-63
2022/04/10 05:59:54;;;;;;;14.93;9.90;;;2.40;99.90;;;;;;5073963;28;20213;-63
2022/04/10 06:02:20;;;;;;;16.60;9.80;;;2.50;99.90;;;;;;5072826;28;20677;-63
2022/04/10 06:04:45;;;;;;;15.90;9.70;;;2.60;99.90;;;;;;5073989;28;20174;-63
2022/04/10 06:07:11;;;;;;;16.67;10.50;;;2.70;99.90;;;;;;5073930;28;20216;-63
2022/04/10 06:09:37;;;;;;;22.00;10.30;;;2.80;99.90;;;;;;5073565;28;20229;-63
2022/04/10 06:12:03;;;;;;;12.97;10.13;;;2.90;99.90;;;;;;5074681;28;20166;-63
2022/04/10 06:14:28;;;;;;;19.30;10.00;;;3.00;99.90;;;;;;5073785;28;20566;-64
2022/04/10 06:16:54;;;;;;;14.83;10.77;;;3.10;99.90;;;;;;5073926;28;20159;-63
2022/04/10 06:19:20;;;;;;;12.47;9.87;;;3.20;99.90;;;;;;5073837;28;20189;-64
2022/04/10 06:21:45;;;;;;;20.50;10.13;;;3.30;99.90;;;;;;5074779;28;20575;-63
2022/04/10 06:24:11;;;;;;;14.43;10.27;;;3.40;99.90;;;;;;5060950;28;20190;-63
2022/04/10 06:26:37;;;;;;;18.67;10.40;;;3.60;99.90;;;;;;5066243;28;20185;-64
2022/04/10 06:29:03;;;;;;;14.37;10.13;;;3.60;99.90;;;;;;5072455;28;20251;-63
2022/04/10 06:31:29;;;;;;;17.70;10.10;;;3.70;99.90;;;;;;5073945;28;20173;-63
2022/04/10 06:33:56;;;;;;;18.80;10.37;;;3.70;99.90;;;;;;5074390;28;20312;-63
2022/04/10 06:36:23;;;;;;;14.33;11.10;;;3.80;99.90;;;;;;5074232;28;20156;-62
2022/04/10 06:38:49;;;;;;;14.87;9.27;;;3.90;99.90;;;;;;5072417;28;20692;-63
2022/04/10 06:41:15;;;;;;;11.83;9.40;;;4.00;99.90;;;;;;5073444;28;20166;-62
2022/04/10 06:43:42;;;;;;;14.07;9.37;;;4.10;99.90;;;;;;5072388;28;20591;-63
2022/04/10 06:46:08;;;;;;;18.03;9.80;;;4.30;99.90;;;;;;5073763;28;20158;-63
2022/04/10 06:48:35;;;;;;;12.93;9.27;;;4.50;99.90;;;;;;5073859;28;20200;-63
2022/04/10 06:51:03;;;;;;;14.07;9.00;;;4.60;99.90;;;;;;5072267;28;20268;-63
2022/04/10 06:53:29;;;;;;;13.37;8.70;;;4.70;99.90;;;;;;5066570;28;20174;-62
2022/04/10 06:55:55;;;;;;;13.60;10.07;;;4.70;99.90;;;;;;5060033;28;20205;-62
2022/04/10 06:58:22;;;;;;;14.03;9.73;;;4.80;99.90;;;;;;5073575;28;20219;-62
2022/04/10 07:00:49;;;;;;;16.37;9.50;;;4.80;99.90;;;;;;5073434;28;20242;-62
2022/04/10 07:03:15;;;;;;;11.60;8.63;;;4.80;99.90;;;;;;5074027;28;20164;-62
2022/04/10 07:05:41;;;;;;;13.50;8.37;;;4.70;99.90;;;;;;5074568;28;20219;-63
2022/04/10 07:08:09;;;;;;;14.33;8.57;;;4.70;99.90;;;;;;5073993;28;20162;-63
2022/04/10 07:10:36;;;;;;;11.77;7.57;;;4.70;99.90;;;;;;5075016;28;20197;-62
2022/04/10 07:13:03;;;;;;;12.33;8.33;;;4.80;99.90;;;;;;5079162;28;20186;-63
2022/04/10 07:15:29;;;;;;;13.97;7.60;;;4.90;99.90;;;;;;5079926;28;20243;-62
2022/04/10 07:17:56;;;;;;;15.00;7.90;;;5.10;99.90;;;;;;5078039;28;20158;-62
2022/04/10 07:20:22;;;;;;;13.77;8.13;;;5.20;99.90;;;;;;5077552;28;20186;-63
2022/04/10 07:25:32;;;;;;;16.60;8.10;;;5.30;99.90;;;;;;5061018;28;20184;-62
2022/04/10 07:27:59;;;;;;;11.03;7.40;;;5.50;99.90;;;;;;5077373;28;20185;-62
2022/04/10 07:30:25;;;;;;;11.17;7.43;;;5.50;99.90;;;;;;5077663;28;20170;-71
2022/04/10 07:32:52;;;;;;;12.03;7.87;;;5.60;99.90;;;;;;5077276;28;20218;-64
2022/04/10 07:35:19;;;;;;;10.97;8.13;;;5.60;99.90;;;;;;5078202;28;20216;-63
2022/04/10 07:37:46;;;;;;;12.80;8.03;;;5.60;99.90;;;;;;5077968;28;20241;-63
2022/04/10 07:40:11;;;;;;;11.07;7.40;;;5.70;99.90;;;;;;5077023;28;20673;-65
2022/04/10 07:42:43;;;;;;;11.10;8.07;;;5.70;99.90;;;;;;5076794;28;20651;-63
2022/04/10 07:45:09;;;;;;;12.33;8.10;;;5.90;99.90;;;;;;5077263;28;20158;-63
2022/04/10 07:47:35;;;;;;;10.97;8.10;;;5.80;99.90;;;;;;5077275;28;20525;-64
2022/04/10 07:50:01;;;;;;;14.93;7.77;;;5.70;99.90;;;;;;5077488;28;20198;-63
2022/04/10 07:52:27;;;;;;;13.60;8.07;;;5.90;99.90;;;;;;5076723;28;20204;-63
2022/04/10 07:54:53;;;;;;;10.10;7.43;;;6.00;99.90;;;;;;5058087;28;20203;-62
2022/04/10 07:57:19;;;;;;;9.90;7.37;;;6.10;99.90;;;;;;5073741;28;20225;-63
2022/04/10 07:59:45;;;;;;;12.43;7.67;;;6.00;99.90;;;;;;5076498;28;20206;-64
2022/04/10 08:02:11;;;;;;;10.60;7.33;;;6.10;99.90;;;;;;5076339;28;20526;-63
2022/04/10 08:04:38;;;;;;;11.10;7.27;;;6.30;99.90;;;;;;5077079;28;20231;-63
2022/04/10 08:07:04;;;;;;;9.97;6.73;;;6.40;99.90;;;;;;5076313;28;20162;-63
2022/04/10 08:09:30;;;;;;;7.73;6.30;;;6.60;99.90;;;;;;5076490;28;20213;-63
2022/04/10 08:11:55;;;;;;;12.13;6.87;;;6.70;99.90;;;;;;5074533;28;20605;-63
2022/04/10 08:14:21;;;;;;;11.30;6.63;;;6.70;99.90;;;;;;5074750;28;20228;-63
2022/04/10 08:16:47;;;;;;;9.67;6.33;;;6.90;99.90;;;;;;5076338;28;20162;-63
2022/04/10 08:19:13;;;;;;;14.10;6.97;;;6.70;99.90;;;;;;5076503;28;20193;-64
2022/04/10 08:21:39;;;;;;;10.07;6.50;;;6.80;99.90;;;;;;5074511;28;20170;-64
2022/04/10 08:24:06;;;;;;;11.13;6.47;;;7.20;99.90;;;;;;5063981;28;20186;-63
2022/04/10 08:26:34;;;;;;;11.93;6.73;;;8.10;99.90;;;;;;5067842;28;20178;-63
2022/04/10 08:28:59;;;;;;;13.67;6.47;;;8.20;99.90;;;;;;5075946;28;20592;-63
2022/04/10 08:31:28;;;;;;;10.07;6.57;;;7.80;99.90;;;;;;5076321;28;20162;-63
2022/04/10 08:33:53;;;;;;;12.60;6.13;;;7.90;99.90;;;;;;5075918;28;20502;-63
2022/04/10 08:36:19;;;;;;;9.87;6.20;;;8.10;99.90;;;;;;5076054;28;20161;-63
2022/04/10 08:38:45;;;;;;;9.37;6.70;;;7.80;99.90;;;;;;5075591;28;20208;-64
2022/04/10 08:41:13;;;;;;;12.13;6.03;;;8.00;99.90;;;;;;5074093;28;20169;-63
2022/04/10 08:43:39;;;;;;;9.17;5.83;;;9.20;99.90;;;;;;5075574;28;20619;-63
2022/04/10 08:46:06;;;;;;;10.53;5.70;;;9.50;99.90;;;;;;5075825;28;20162;-63
2022/04/10 08:48:32;;;;;;;11.10;6.13;;;9.00;99.90;;;;;;5074412;28;20223;-63
2022/04/10 08:50:59;;;;;;;10.27;5.60;;;8.30;99.90;;;;;;5074416;28;20185;-64
2022/04/10 08:53:25;;;;;;;5.93;5.10;;;7.70;99.90;;;;;;5067870;28;20323;-63
2022/04/10 08:55:51;;;;;;;10.47;5.73;;;7.90;99.90;;;;;;5062981;28;20205;-64
2022/04/10 08:58:19;;;;;;;10.70;6.07;;;7.90;99.90;;;;;;5075699;28;20208;-63
2022/04/10 09:00:45;;;;;;;12.30;5.47;;;7.70;99.90;;;;;;5075819;28;20161;-63
2022/04/10 09:03:11;;;;;;;10.63;6.07;;;7.80;99.90;;;;;;5075391;28;20162;-64
2022/04/10 09:05:37;;;;;;;8.90;5.90;;;8.20;99.90;;;;;;5075465;28;20174;-63
2022/04/10 09:08:18;;;;;;;10.87;5.33;;;8.50;99.90;;;;;;5075004;28;20647;-63
2022/04/10 09:11:07;;;;;;;8.10;5.53;;;8.60;99.90;;;;;;5074764;28;20194;-63
2022/04/10 09:13:38;;;;;;;7.23;5.40;;;8.30;99.90;;;;;;5075175;28;20155;-63
2022/04/10 09:16:30;;;;;;;7.77;5.57;;;8.20;99.90;;;;;;5073671;28;20198;-65
2022/04/10 09:19:06;;;;;;;8.47;5.60;;;7.70;99.90;;;;;;5074930;28;20206;-64
2022/04/10 09:21:33;;;;;;;11.03;5.53;;;7.70;99.90;;;;;;5075157;28;20203;-63
2022/04/10 09:24:05;;;;;;;7.40;5.33;;;7.50;99.90;;;;;;5062522;28;20186;-63
2022/04/10 09:26:46;;;;;;;6.67;5.40;;;7.30;99.90;;;;;;5066497;28;20224;-63
2022/04/10 09:29:14;;;;;;;7.87;5.60;;;7.30;99.90;;;;;;5074832;28;20190;-64
2022/04/10 09:31:40;;;;;;;7.70;6.03;;;7.20;99.90;;;;;;5074740;28;20174;-64
2022/04/10 09:34:08;;;;;;;8.60;5.87;;;7.20;99.90;;;;;;5074005;28;20197;-63
2022/04/10 09:36:41;;;;;;;6.90;5.63;;;7.30;99.90;;;;;;5073817;28;20508;-63
2022/04/10 09:39:08;;;;;;;6.20;5.60;;;7.30;99.90;;;;;;5074252;28;20185;-63
2022/04/10 09:41:34;;;;;;;9.93;6.07;;;7.20;99.90;;;;;;5074557;28;20662;-63
2022/04/10 09:44:10;;;;;;;12.10;6.53;;;7.10;99.90;;;;;;5073050;28;20175;-63
2022/04/10 09:46:36;;;;;;;10.17;6.37;;;7.00;99.90;;;;;;5072992;28;20173;-63
2022/04/10 09:49:10;;;;;;;8.67;6.10;;;6.90;99.90;;;;;;5074826;28;20708;-62
2022/04/10 09:51:37;;;;;;;8.57;6.30;;;7.00;99.90;;;;;;5074243;28;20161;-63
2022/04/10 09:54:05;;;;;;;8.50;6.07;;;7.00;99.90;;;;;;5062659;28;20194;-63
2022/04/10 09:56:31;;;;;;;5.63;5.17;;;6.90;99.90;;;;;;5066484;28;20733;-63
2022/04/10 09:59:01;;;;;;;6.60;5.70;;;6.80;99.90;;;;;;5074369;28;20198;-63
2022/04/10 10:01:28;;;;;;;8.90;5.83;;;6.70;99.90;;;;;;5074437;28;20154;-63
2022/04/10 10:03:56;;;;;;;11.63;5.87;;;6.60;99.90;;;;;;5074674;28;20170;-62
2022/04/10 10:06:23;;;;;;;10.30;6.13;;;6.50;99.90;;;;;;5074041;28;20614;-62
2022/04/10 10:08:49;;;;;;;14.30;6.53;;;6.40;99.90;;;;;;5073951;28;20566;-63
2022/04/10 10:11:16;;;;;;;6.80;6.17;;;6.40;99.90;;;;;;5073668;28;20194;-63
2022/04/10 10:13:42;;;;;;;10.67;6.07;;;6.20;99.90;;;;;;5074067;28;20203;-63
2022/04/10 10:16:09;;;;;;;7.43;6.30;;;6.00;99.90;;;;;;5074186;28;20690;-63
2022/04/10 10:18:36;;;;;;;11.47;8.07;;;6.00;99.90;;;;;;5072612;28;20197;-63
2022/04/10 10:21:03;;;;;;;14.13;6.20;;;6.00;99.90;;;;;;5073973;28;20549;-62
2022/04/10 10:23:29;;;;;;;6.73;6.03;;;6.10;99.90;;;;;;5067479;28;20270;-63
2022/04/10 10:26:06;;;;;;;9.07;6.90;;;6.20;99.90;;;;;;5060551;28;20193;-63
2022/04/10 10:28:55;;;;;;;8.93;6.43;;;6.20;99.90;;;;;;5074051;28;20220;-63
2022/04/10 10:31:28;;;;;;;10.37;6.17;;;6.30;99.90;;;;;;5073197;28;20209;-62
2022/04/10 10:34:02;;;;;;;8.27;6.17;;;6.40;99.90;;;;;;5072725;28;20182;-63
2022/04/10 10:36:28;;;;;;;12.77;6.50;;;6.60;99.90;;;;;;5074213;28;20180;-64
2022/04/10 10:38:55;;;;;;;7.13;6.33;;;7.10;99.90;;;;;;5073824;28;20217;-64
2022/04/10 10:41:24;;;;;;;9.17;6.53;;;7.60;99.90;;;;;;5072091;28;20170;-63
2022/04/10 10:43:51;;;;;;;8.93;6.00;;;8.20;99.90;;;;;;5073247;28;20645;-63
2022/04/10 10:46:20;;;;;;;10.77;6.10;;;8.50;99.90;;;;;;5073861;28;20170;-63
2022/04/10 10:48:47;;;;;;;11.83;6.00;;;8.30;99.90;;;;;;5073528;28;20193;-64
2022/04/10 10:51:12;;;;;;;12.37;5.90;;;8.20;99.90;;;;;;5073715;28;20174;-62
2022/04/10 10:53:58;;;;;;;10.07;5.90;;;8.00;99.90;;;;;;5066553;28;20178;-65
2022/04/10 10:56:34;;;;;;;8.97;5.70;;;7.80;99.90;;;;;;5064352;28;20190;-64
2022/04/10 10:59:23;;;;;;;7.20;5.43;;;7.50;99.90;;;;;;5075408;28;20189;-64
2022/04/10 11:02:02;;;;;;;11.10;5.97;;;7.30;99.90;;;;;;5074552;28;20170;-63
2022/04/10 11:04:34;;;;;;;12.30;6.67;;;7.20;99.90;;;;;;5074752;28;20170;-63
2022/04/10 11:07:27;;;;;;;8.63;6.13;;;7.10;99.90;;;;;;5073561;28;20288;-63
2022/04/10 11:09:58;;;;;;;8.33;6.70;;;7.30;99.90;;;;;;5072851;28;20241;-64
2022/04/10 11:12:45;;;;;;;9.60;5.87;;;7.70;99.90;;;;;;5072090;28;20173;-63
2022/04/10 11:15:19;;;;;;;6.87;5.00;;;8.30;99.90;;;;;;5072988;28;20190;-63
2022/04/10 11:17:45;;;;;;;5.40;4.73;;;8.80;99.90;;;;;;5073321;28;20154;-63
2022/04/10 11:20:14;;;;;;;6.20;4.73;;;9.40;99.90;;;;;;5073109;28;20190;-63
2022/04/10 11:22:47;;;;;;;8.27;4.87;;;10.00;99.90;;;;;;5071617;28;20177;-63
2022/04/10 11:25:17;;;;;;;3.90;3.60;;;9.90;99.90;;;;;;5054398;28;20166;-62
2022/04/10 11:27:50;;;;;;;5.00;4.33;;;9.60;99.90;;;;;;5072956;28;20162;-63
2022/04/10 11:30:31;;;;;;;6.87;4.00;;;9.00;99.90;;;;;;5073001;28;20607;-63
2022/04/10 11:32:57;;;;;;;4.30;3.90;;;9.30;99.90;;;;;;5073529;28;20159;-63
2022/04/10 11:35:27;;;;;;;4.37;3.97;;;9.60;99.90;;;;;;5073388;28;20590;-63
2022/04/10 11:37:58;;;;;;;4.23;3.83;;;10.00;99.90;;;;;;5073296;28;20162;-64
2022/04/10 11:40:27;;;;;;;7.13;3.80;;;10.20;99.90;;;;;;5073246;28;20197;-63
2022/04/10 11:42:54;;;;;;;6.10;4.33;;;9.90;99.90;;;;;;5072816;28;20241;-63
2022/04/10 11:45:22;;;;;;;5.17;3.67;;;9.50;99.90;;;;;;5072903;28;20241;-63
2022/04/10 11:47:48;;;;;;;4.13;3.83;;;9.20;99.90;;;;;;5071772;28;20176;-64
2022/04/10 11:50:14;;;;;;;4.83;4.10;;;9.00;99.90;;;;;;5073069;28;20293;-63
2022/04/10 11:53:01;;;;;;;4.80;4.30;;;8.60;99.90;;;;;;5073349;28;20203;-63
2022/04/10 11:55:31;;;;;;;4.40;4.03;;;8.50;99.90;;;;;;5056163;28;20263;-63
2022/04/10 11:57:57;;;;;;;5.80;4.40;;;9.00;99.90;;;;;;5076313;28;20169;-63
2022/04/10 12:00:24;;;;;;;4.10;3.63;;;9.30;99.90;;;;;;5075428;28;20204;-62
2022/04/10 12:02:53;;;;;;;5.70;3.70;;;9.70;99.90;;;;;;5075322;28;20174;-62
2022/04/10 12:05:19;;;;;;;4.23;3.87;;;10.20;99.90;;;;;;5076685;28;20166;-64
2022/04/10 12:07:45;;;;;;;4.10;3.70;;;9.90;99.90;;;;;;5075192;28;20177;-63
2022/04/10 12:10:18;;;;;;;4.17;3.60;;;9.60;99.90;;;;;;5076136;28;20697;-62
2022/04/10 12:12:46;;;;;;;9.30;4.40;;;9.30;99.90;;;;;;5074792;28;20260;-63
2022/04/10 12:15:16;;;;;;;7.57;3.87;;;9.10;99.90;;;;;;5076384;28;20208;-63
2022/04/10 12:17:42;;;;;;;4.73;4.10;;;9.40;99.90;;;;;;5075470;28;20526;-64
2022/04/10 12:20:09;;;;;;;3.90;3.60;;;9.50;99.90;;;;;;5074949;28;20692;-64
2022/04/10 12:22:35;;;;;;;3.90;3.60;;;9.60;99.90;;;;;;5074908;28;20264;-66
2022/04/10 12:25:03;;;;;;;5.60;4.07;;;10.00;99.90;;;;;;5057360;28;20660;-62
2022/04/10 12:27:29;;;;;;;5.07;3.60;;;10.40;99.90;;;;;;5076635;28;20185;-64
2022/04/10 12:29:56;;;;;;;3.90;3.60;;;11.20;99.90;;;;;;5078942;28;20202;-63
2022/04/10 12:32:24;;;;;;;5.63;3.70;;;11.30;99.90;;;;;;5077455;28;20178;-62
2022/04/10 12:34:53;;;;;;;3.73;3.40;;;11.70;99.90;;;;;;5077922;28;20243;-62
2022/04/10 12:37:19;;;;;;;3.97;3.60;;;12.30;99.90;;;;;;5077840;28;20186;-63
2022/04/10 12:39:48;;;;;;;4.33;3.37;;;11.90;99.90;;;;;;5076278;28;20273;-63
2022/04/10 12:42:22;;;;;;;4.10;3.70;;;11.70;99.90;;;;;;5075726;28;20253;-63
2022/04/10 12:44:56;;;;;;;4.17;3.77;;;11.80;99.90;;;;;;5076290;28;20162;-62
2022/04/10 12:47:41;;;;;;;5.20;4.27;;;12.00;99.90;;;;;;5076624;28;20238;-63
2022/04/10 12:50:10;;;;;;;4.88;3.85;;;11.60;99.90;;;;;;5077109;28;20197;-63